createdAt,value
2018-03-16T00:01:45.259Z,43.77
2018-03-16T00:04:14.598Z,47.87
2018-03-16T00:06:43.940Z,41.90
2018-03-16T00:09:13.154Z,41.03
2018-03-16T00:11:42.348Z,44.00
2018-03-16T00:14:11.826Z,46.50
2018-03-16T00:16:41.828Z,49.07
2018-03-16T00:19:11.055Z,45.23
2018-03-16T00:21:40.306Z,48.40
2018-03-16T00:24:09.677Z,47.33
2018-03-16T00:26:39.017Z,49.13
2018-03-16T00:29:08.059Z,49.40
2018-03-16T00:31:37.279Z,47.40
2018-03-16T00:34:06.483Z,48.60
2018-03-16T00:36:35.700Z,49.80
2018-03-16T00:39:04.933Z,46.93
2018-03-16T00:41:34.901Z,47.57
2018-03-16T00:44:04.131Z,49.63
2018-03-16T00:46:34.096Z,54.80
2018-03-16T00:49:03.264Z,53.23
2018-03-16T00:51:32.510Z,55.40
2018-03-16T00:54:01.718Z,51.43
2018-03-16T00:56:30.936Z,49.80
2018-03-16T00:59:00.194Z,49.50
2018-03-16T01:01:29.475Z,53.47
2018-03-16T01:03:59.398Z,51.80
2018-03-16T01:06:28.616Z,51.97
2018-03-16T01:08:57.802Z,49.70
2018-03-16T01:11:27.027Z,50.67
2018-03-16T01:13:56.231Z,49.57
2018-03-16T01:16:25.447Z,54.00
2018-03-16T01:18:55.390Z,52.27
2018-03-16T01:21:24.603Z,52.13
2018-03-16T01:23:53.863Z,54.23
2018-03-16T01:26:23.806Z,53.60
2018-03-16T01:28:53.014Z,58.87
2018-03-16T01:31:22.442Z,59.33
2018-03-16T01:33:52.555Z,68.67
2018-03-16T01:36:21.779Z,59.57
2018-03-16T01:38:51.022Z,60.40
2018-03-16T01:41:20.225Z,60.40
2018-03-16T01:43:49.463Z,70.80
2018-03-16T01:46:18.655Z,60.10
2018-03-16T01:48:47.877Z,64.67
2018-03-16T01:51:17.095Z,64.77
2018-03-16T01:53:46.322Z,62.60
2018-03-16T01:56:15.557Z,71.13
2018-03-16T01:58:45.537Z,62.53
2018-03-16T02:01:15.423Z,63.60
2018-03-16T02:03:44.719Z,64.57
2018-03-16T02:06:14.667Z,62.70
2018-03-16T02:08:43.922Z,70.70
2018-03-16T02:11:13.143Z,59.77
2018-03-16T02:13:42.347Z,63.27
2018-03-16T02:16:11.605Z,66.90
2018-03-16T02:18:42.051Z,65.20
2018-03-16T02:21:11.270Z,62.20
2018-03-16T02:23:40.508Z,62.30
2018-03-16T02:26:10.643Z,66.27
2018-03-16T02:28:40.630Z,66.87
2018-03-16T02:31:09.847Z,69.57
2018-03-16T02:33:39.903Z,62.97
2018-03-16T02:36:09.857Z,69.43
2018-03-16T02:38:39.058Z,64.93
2018-03-16T02:41:09.270Z,65.00
2018-03-16T02:43:38.464Z,64.97
2018-03-16T02:46:07.693Z,64.33
2018-03-16T02:48:37.648Z,63.03
2018-03-16T02:51:06.867Z,66.00
2018-03-16T02:53:36.107Z,60.17
2018-03-16T02:56:06.145Z,63.83
2018-03-16T02:58:35.363Z,61.23
2018-03-16T03:01:05.390Z,60.00
2018-03-16T03:03:34.611Z,65.27
2018-03-16T03:06:03.802Z,64.03
2018-03-16T03:08:33.014Z,67.50
2018-03-16T03:11:02.219Z,68.00
2018-03-16T03:13:32.211Z,64.17
2018-03-16T03:16:01.407Z,71.83
2018-03-16T03:18:30.618Z,67.50
2018-03-16T03:21:00.127Z,66.67
2018-03-16T03:23:29.351Z,63.33
2018-03-16T03:25:58.559Z,68.80
2018-03-16T03:28:27.836Z,73.17
2018-03-16T03:30:57.779Z,71.20
2018-03-16T03:33:27.513Z,74.87
2018-03-16T03:35:56.756Z,67.60
2018-03-16T03:38:26.737Z,65.97
2018-03-16T03:40:55.951Z,67.20
2018-03-16T03:43:25.915Z,69.77
2018-03-16T03:45:55.114Z,73.43
2018-03-16T03:48:24.344Z,68.47
2018-03-16T03:50:53.590Z,66.70
2018-03-16T03:53:23.553Z,69.53
2018-03-16T03:55:52.786Z,75.10
2018-03-16T03:58:22.738Z,63.37
2018-03-16T04:00:51.952Z,72.87
2018-03-16T04:03:21.139Z,69.73
2018-03-16T04:05:50.406Z,64.63
2018-03-16T04:08:20.575Z,69.87
2018-03-16T04:10:49.818Z,64.10
2018-03-16T04:13:18.999Z,83.23
2018-03-16T04:15:48.989Z,72.50
2018-03-16T04:18:18.203Z,68.20
2018-03-16T04:20:47.438Z,74.37
2018-03-16T04:23:16.727Z,105.20
2018-03-16T04:25:46.761Z,76.70
2018-03-16T04:28:16.308Z,66.13
2018-03-16T04:30:45.662Z,72.97
2018-03-16T04:33:14.866Z,74.43
2018-03-16T04:35:44.101Z,66.87
2018-03-16T04:38:13.295Z,79.47
2018-03-16T04:40:42.514Z,83.63
2018-03-16T04:43:11.730Z,88.07
2018-03-16T04:45:40.970Z,81.93
2018-03-16T04:48:10.486Z,73.50
2018-03-16T04:50:39.674Z,77.10
2018-03-16T04:53:08.875Z,69.57
2018-03-16T04:55:38.078Z,79.93
2018-03-16T04:58:07.330Z,76.10
2018-03-16T05:00:37.339Z,79.90
2018-03-16T05:03:06.947Z,69.30
2018-03-16T05:05:36.924Z,71.83
2018-03-16T05:08:06.976Z,71.10
2018-03-16T05:10:36.948Z,67.00
2018-03-16T05:13:06.142Z,69.53
2018-03-16T05:15:35.338Z,76.63
2018-03-16T05:18:05.335Z,68.73
2018-03-16T05:20:34.532Z,68.83
2018-03-16T05:23:03.772Z,73.77
2018-03-16T05:25:32.958Z,74.20
2018-03-16T05:28:02.392Z,66.30
2018-03-16T05:30:31.590Z,73.53
2018-03-16T05:33:01.550Z,69.37
2018-03-16T05:35:30.754Z,67.87
2018-03-16T05:37:59.974Z,64.00
2018-03-16T05:40:29.219Z,67.17
2018-03-16T05:42:59.211Z,60.30
2018-03-16T05:45:28.451Z,60.63
2018-03-16T05:47:57.664Z,55.47
2018-03-16T05:50:26.860Z,61.40
2018-03-16T05:52:56.139Z,54.80
2018-03-16T05:55:25.343Z,52.63
2018-03-16T05:57:54.544Z,50.43
2018-03-16T06:00:23.771Z,46.40
2018-03-16T06:02:52.978Z,47.10
2018-03-16T06:05:22.192Z,50.33
2018-03-16T06:07:51.442Z,45.30
2018-03-16T06:10:20.625Z,42.73
2018-03-16T06:12:49.865Z,47.80
2018-03-16T06:15:19.119Z,46.83
2018-03-16T06:17:48.332Z,47.13
2018-03-16T06:20:17.664Z,39.10
2018-03-16T06:22:46.863Z,41.17
2018-03-16T06:25:16.070Z,44.03
2018-03-16T06:27:45.264Z,39.90
2018-03-16T06:30:14.520Z,48.70
2018-03-16T06:32:43.743Z,37.93
2018-03-16T06:35:13.028Z,36.00
2018-03-16T06:37:42.222Z,42.07
2018-03-16T06:40:11.446Z,33.53
2018-03-16T06:42:40.615Z,38.80
2018-03-16T06:45:09.823Z,36.23
2018-03-16T06:47:38.999Z,36.17
2018-03-16T06:50:08.242Z,38.10
2018-03-16T06:52:37.440Z,37.87
2018-03-16T06:55:06.638Z,38.50
2018-03-16T06:57:35.943Z,34.40
2018-03-16T07:00:05.135Z,44.43
2018-03-16T07:02:34.340Z,39.10
2018-03-16T07:05:03.582Z,36.90
2018-03-16T07:07:32.791Z,40.77
2018-03-16T07:10:02.126Z,34.83
2018-03-16T07:12:31.376Z,37.90
2018-03-16T07:15:38.426Z,36.87
2018-03-16T07:18:08.492Z,35.60
2018-03-16T07:20:37.702Z,38.87
2018-03-16T07:23:06.910Z,35.13
2018-03-16T07:25:36.925Z,31.07
2018-03-16T07:28:06.122Z,32.40
2018-03-16T07:30:35.340Z,33.60
2018-03-16T07:33:04.543Z,33.87
2018-03-16T07:35:34.568Z,33.10
2018-03-16T07:38:03.775Z,36.73
2018-03-16T07:40:33.775Z,31.33
2018-03-16T07:43:03.774Z,31.03
2018-03-16T07:45:38.317Z,33.63
2018-03-16T07:48:08.345Z,34.27
2018-03-16T07:50:38.322Z,34.97
2018-03-16T07:53:07.551Z,34.40
2018-03-16T07:55:36.828Z,40.43
2018-03-16T07:58:06.023Z,33.70
2018-03-16T08:00:35.221Z,32.07
2018-03-16T08:03:05.239Z,32.50
2018-03-16T08:05:34.456Z,36.40
2018-03-16T08:08:04.438Z,30.43
2018-03-16T08:10:33.668Z,33.50
2018-03-16T08:13:03.654Z,33.07
2018-03-16T08:15:32.835Z,34.53
2018-03-16T08:18:02.038Z,31.33
2018-03-16T08:20:31.236Z,37.13
2018-03-16T08:23:00.463Z,35.63
2018-03-16T08:25:29.766Z,34.70
2018-03-16T08:27:59.789Z,39.10
2018-03-16T08:30:29.032Z,36.77
2018-03-16T08:32:58.253Z,33.40
2018-03-16T08:35:28.227Z,37.73
2018-03-16T08:37:57.440Z,42.93
2018-03-16T08:40:26.639Z,35.17
2018-03-16T08:42:55.860Z,32.13
2018-03-16T08:45:25.062Z,36.83
2018-03-16T08:47:54.291Z,33.57
2018-03-16T08:50:24.255Z,32.93
2018-03-16T08:52:53.467Z,35.80
2018-03-16T08:55:22.677Z,33.90
2018-03-16T08:57:51.897Z,30.47
2018-03-16T09:00:21.878Z,40.20
2018-03-16T09:02:51.119Z,32.60
2018-03-16T09:05:20.339Z,29.40
2018-03-16T09:07:49.550Z,32.30
2018-03-16T09:10:18.763Z,30.83
2018-03-16T09:12:48.051Z,29.43
2018-03-16T09:15:17.267Z,32.30
2018-03-16T09:17:46.518Z,34.20
2018-03-16T09:20:15.717Z,31.77
2018-03-16T09:22:44.994Z,30.73
2018-03-16T09:25:14.978Z,28.93
2018-03-16T09:27:44.210Z,27.83
2018-03-16T09:30:14.216Z,31.57
2018-03-16T09:32:43.434Z,30.50
2018-03-16T09:35:12.835Z,31.20
2018-03-16T09:37:42.100Z,29.67
2018-03-16T09:40:11.355Z,31.13
2018-03-16T09:42:40.827Z,29.07
2018-03-16T09:45:10.790Z,29.03
2018-03-16T09:47:40.013Z,28.83
2018-03-16T09:50:09.225Z,26.43
2018-03-16T09:52:38.450Z,32.13
2018-03-16T09:55:25.532Z,34.27
2018-03-16T09:57:54.772Z,30.70
2018-03-16T10:00:23.972Z,29.73
2018-03-16T10:02:53.194Z,29.33
2018-03-16T10:05:22.462Z,32.07
2018-03-16T10:07:51.664Z,33.87
2018-03-16T10:10:20.888Z,29.60
2018-03-16T10:12:50.203Z,29.60
2018-03-16T10:15:19.458Z,33.00
2018-03-16T10:17:48.949Z,30.30
2018-03-16T10:20:18.986Z,30.37
2018-03-16T10:22:48.956Z,31.90
2018-03-16T10:25:18.163Z,35.10
2018-03-16T10:27:48.251Z,40.93
2018-03-16T10:30:17.476Z,33.07
2018-03-16T10:32:46.686Z,31.50
2018-03-16T10:35:16.656Z,30.27
2018-03-16T10:37:45.866Z,34.73
2018-03-16T10:40:15.094Z,31.57
2018-03-16T10:42:44.525Z,27.77
2018-03-16T10:45:13.746Z,32.50
2018-03-16T10:47:42.983Z,29.70
2018-03-16T10:50:13.029Z,31.37
2018-03-16T10:52:42.999Z,26.23
2018-03-16T10:55:12.177Z,27.77
2018-03-16T10:57:41.372Z,32.60
2018-03-16T11:00:10.591Z,29.13
2018-03-16T11:02:45.248Z,29.50
2018-03-16T11:05:18.625Z,28.50
2018-03-16T11:08:05.396Z,29.07
2018-03-16T11:10:35.360Z,27.90
2018-03-16T11:13:05.367Z,28.73
2018-03-16T11:15:35.304Z,33.30
2018-03-16T11:18:04.501Z,30.63
2018-03-16T11:20:33.725Z,28.33
2018-03-16T11:23:02.920Z,28.37
2018-03-16T11:25:32.116Z,27.43
2018-03-16T11:28:01.318Z,30.80
2018-03-16T11:30:30.839Z,26.23
2018-03-16T11:32:59.983Z,28.03
2018-03-16T11:35:29.264Z,29.73
2018-03-16T11:37:58.502Z,28.40
2018-03-16T11:40:27.723Z,26.67
2018-03-16T11:42:57.173Z,28.43
2018-03-16T11:45:26.390Z,27.53
2018-03-16T11:47:55.595Z,27.40
2018-03-16T11:50:24.921Z,27.27
2018-03-16T11:52:54.114Z,26.90
2018-03-16T11:55:23.704Z,22.90
2018-03-16T11:57:53.700Z,24.23
2018-03-16T12:00:23.234Z,27.97
2018-03-16T12:02:52.527Z,23.47
2018-03-16T12:05:22.498Z,22.33
2018-03-16T12:07:52.562Z,24.80
2018-03-16T12:10:21.846Z,21.57
2018-03-16T12:12:51.173Z,22.67
2018-03-16T12:15:20.439Z,23.97
2018-03-16T12:17:49.666Z,18.23
2018-03-16T12:20:18.851Z,20.97
2018-03-16T12:22:48.071Z,21.83
2018-03-16T12:25:17.268Z,19.73
2018-03-16T12:27:46.484Z,18.53
2018-03-16T12:30:15.766Z,21.00
2018-03-16T12:32:44.979Z,21.43
2018-03-16T12:35:14.224Z,23.90
2018-03-16T12:37:43.391Z,20.30
2018-03-16T12:40:13.371Z,21.13
2018-03-16T12:42:42.648Z,19.10
2018-03-16T12:45:12.565Z,17.00
2018-03-16T12:47:41.810Z,18.80
2018-03-16T12:50:11.845Z,15.77
2018-03-16T12:52:41.832Z,15.33
2018-03-16T12:55:11.040Z,17.83
2018-03-16T12:57:40.498Z,14.53
2018-03-16T13:00:09.724Z,19.70
2018-03-16T13:02:39.839Z,13.23
2018-03-16T13:05:09.058Z,14.97
2018-03-16T13:07:38.405Z,14.67
2018-03-16T13:10:07.613Z,12.93
2018-03-16T13:12:37.672Z,13.73
2018-03-16T13:15:06.887Z,11.97
2018-03-16T13:17:36.859Z,12.53
2018-03-16T13:20:06.082Z,13.27
2018-03-16T13:22:35.301Z,13.90
2018-03-16T13:25:05.277Z,11.17
2018-03-16T13:27:34.559Z,12.53
2018-03-16T13:30:03.808Z,10.90
2018-03-16T13:32:33.784Z,18.27
2018-03-16T13:35:03.058Z,12.90
2018-03-16T13:37:32.267Z,10.90
2018-03-16T13:40:01.501Z,10.90
2018-03-16T13:42:30.703Z,12.90
2018-03-16T13:44:59.973Z,10.10
2018-03-16T13:47:29.245Z,11.70
2018-03-16T13:49:58.504Z,13.70
2018-03-16T13:52:28.496Z,11.77
2018-03-16T13:54:57.711Z,12.90
2018-03-16T13:57:27.164Z,12.37
2018-03-16T13:59:56.418Z,13.10
2018-03-16T14:02:25.648Z,20.60
2018-03-16T14:04:54.838Z,20.00
2018-03-16T14:07:24.063Z,15.30
2018-03-16T14:09:53.287Z,13.97
2018-03-16T14:12:22.617Z,18.20
2018-03-16T14:14:51.815Z,11.50
2018-03-16T14:17:21.793Z,16.90
2018-03-16T14:19:51.029Z,13.97
2018-03-16T14:22:21.110Z,17.70
2018-03-16T14:24:50.359Z,12.90
2018-03-16T14:27:19.605Z,14.57
2018-03-16T14:29:48.822Z,13.57
2018-03-16T14:32:18.036Z,14.07
2018-03-16T14:34:48.226Z,18.03
2018-03-16T14:37:17.475Z,15.43
2018-03-16T14:39:46.694Z,17.37
2018-03-16T14:42:16.002Z,15.23
2018-03-16T14:44:45.181Z,15.30
2018-03-16T14:47:14.470Z,14.33
2018-03-16T14:49:43.626Z,14.67
2018-03-16T14:52:12.849Z,19.23
2018-03-16T14:54:42.961Z,14.47
2018-03-16T14:57:13.149Z,15.77
2018-03-16T14:59:42.368Z,19.53
2018-03-16T15:02:11.729Z,17.10
2018-03-16T15:04:40.936Z,19.33
2018-03-16T15:07:10.219Z,20.93
2018-03-16T15:09:39.463Z,19.57
2018-03-16T15:12:09.535Z,19.77
2018-03-16T15:14:38.803Z,20.10
2018-03-16T15:17:08.811Z,20.13
2018-03-16T15:19:38.821Z,18.67
2018-03-16T15:22:08.835Z,19.17
2018-03-16T15:24:38.866Z,19.17
2018-03-16T15:27:08.867Z,20.30
2018-03-16T15:29:39.000Z,19.73
2018-03-16T15:32:08.144Z,19.03
2018-03-16T15:34:37.336Z,20.67
2018-03-16T15:37:06.567Z,20.60
2018-03-16T15:39:35.786Z,21.33
2018-03-16T15:42:05.827Z,19.90
2018-03-16T15:44:35.091Z,24.93
2018-03-16T15:47:05.539Z,20.13
2018-03-16T15:49:34.748Z,21.97
2018-03-16T15:52:03.990Z,21.90
2018-03-16T15:54:33.986Z,17.70
2018-03-16T15:57:03.197Z,21.90
2018-03-16T15:59:32.431Z,26.97
2018-03-16T16:02:01.667Z,23.37
2018-03-16T16:04:30.866Z,24.93
2018-03-16T16:07:00.096Z,24.67
2018-03-16T16:09:29.411Z,26.17
2018-03-16T16:11:59.424Z,21.40
2018-03-16T16:14:28.662Z,24.33
2018-03-16T16:16:57.994Z,25.73
2018-03-16T16:19:27.264Z,26.70
2018-03-16T16:21:57.370Z,27.10
2018-03-16T16:24:26.853Z,23.33
2018-03-16T16:26:56.095Z,31.33
2018-03-16T16:29:25.344Z,28.13
2018-03-16T16:31:54.574Z,26.20
2018-03-16T16:34:23.793Z,25.93
2018-03-16T16:36:53.029Z,29.07
2018-03-16T16:39:22.263Z,25.27
2018-03-16T16:41:51.463Z,23.77
2018-03-16T16:44:20.667Z,25.73
2018-03-16T16:46:49.898Z,25.40
2018-03-16T16:49:19.126Z,29.27
2018-03-16T16:51:48.369Z,22.20
2018-03-16T16:54:17.561Z,25.47
2018-03-16T16:56:46.780Z,26.27
2018-03-16T16:59:16.003Z,23.20
2018-03-16T17:01:45.207Z,24.00
2018-03-16T17:04:14.659Z,21.67
2018-03-16T17:06:43.864Z,23.80
2018-03-16T17:09:13.927Z,21.80
2018-03-16T17:11:43.936Z,22.43
2018-03-16T17:14:13.142Z,22.33
2018-03-16T17:16:42.369Z,22.60
2018-03-16T17:19:11.567Z,23.60
2018-03-16T17:21:40.816Z,25.43
2018-03-16T17:24:10.060Z,22.90
2018-03-16T17:26:39.330Z,23.37
2018-03-16T17:29:08.552Z,24.87
2018-03-16T17:31:38.514Z,23.67
2018-03-16T17:34:07.739Z,23.43
2018-03-16T17:36:37.027Z,25.17
2018-03-16T17:39:06.204Z,24.17
2018-03-16T17:41:35.496Z,22.97
2018-03-16T17:44:04.729Z,25.73
2018-03-16T17:46:33.992Z,23.63
2018-03-16T17:49:03.214Z,23.03
2018-03-16T17:51:32.439Z,24.63
2018-03-16T17:54:02.455Z,23.43
2018-03-16T17:56:32.452Z,21.00
2018-03-16T17:59:01.725Z,20.70
2018-03-16T18:01:30.927Z,20.67
2018-03-16T18:04:00.164Z,18.10
2018-03-16T18:06:29.460Z,18.33
2018-03-16T18:08:58.703Z,19.70
2018-03-16T18:11:27.907Z,20.00
2018-03-16T18:13:57.151Z,18.97
2018-03-16T18:16:26.367Z,21.43
2018-03-16T18:18:55.625Z,19.90
2018-03-16T18:21:25.009Z,20.60
2018-03-16T18:23:54.230Z,22.70
2018-03-16T18:26:23.458Z,22.53
2018-03-16T18:28:53.496Z,22.27
2018-03-16T18:31:22.856Z,22.40
2018-03-16T18:33:52.079Z,19.13
2018-03-16T18:36:22.072Z,21.93
2018-03-16T18:38:52.083Z,20.60
2018-03-16T18:41:21.372Z,19.47
2018-03-16T18:43:50.786Z,18.93
2018-03-16T18:46:20.783Z,22.17
2018-03-16T18:48:50.019Z,18.30
2018-03-16T18:51:20.107Z,19.00
2018-03-16T18:53:49.430Z,21.80
2018-03-16T18:56:18.806Z,18.90
2018-03-16T18:58:48.020Z,19.63
2018-03-16T19:01:18.010Z,18.03
2018-03-16T19:03:47.228Z,20.30
2018-03-16T19:06:16.477Z,17.00
2018-03-16T19:08:45.778Z,16.20
2018-03-16T19:11:15.878Z,17.40
2018-03-16T19:13:45.900Z,18.10
2018-03-16T19:16:15.260Z,17.00
2018-03-16T19:18:44.496Z,19.93
2018-03-16T19:21:14.480Z,17.20
2018-03-16T19:23:43.837Z,19.93
2018-03-16T19:26:13.110Z,16.40
2018-03-16T19:28:43.135Z,16.77
2018-03-16T19:31:13.113Z,22.33
2018-03-16T19:33:42.338Z,17.93
2018-03-16T19:36:12.342Z,19.37
2018-03-16T19:38:42.424Z,19.73
2018-03-16T19:41:11.625Z,18.03
2018-03-16T19:43:40.859Z,18.97
2018-03-16T19:46:10.910Z,22.30
2018-03-16T19:48:40.225Z,21.30
2018-03-16T19:51:09.528Z,19.53
2018-03-16T19:53:38.779Z,18.63
2018-03-16T19:56:09.022Z,19.57
2018-03-16T19:58:38.988Z,19.50
2018-03-16T20:01:08.186Z,23.20
2018-03-16T20:03:37.416Z,17.90
2018-03-16T20:06:06.657Z,20.10
2018-03-16T20:08:35.888Z,20.33
2018-03-16T20:11:05.966Z,19.90
2018-03-16T20:13:35.403Z,18.67
2018-03-16T20:16:04.612Z,18.83
2018-03-16T20:18:34.705Z,20.67
2018-03-16T20:21:03.956Z,22.53
2018-03-16T20:23:33.191Z,19.67
2018-03-16T20:26:02.458Z,19.60
2018-03-16T20:28:31.674Z,21.40
2018-03-16T20:31:00.952Z,21.77
2018-03-16T20:33:30.168Z,18.93
2018-03-16T20:35:59.643Z,20.27
2018-03-16T20:38:29.738Z,20.60
2018-03-16T20:40:59.739Z,18.47
2018-03-16T20:43:29.001Z,22.20
2018-03-16T20:45:58.226Z,20.60
2018-03-16T20:48:27.446Z,20.63
2018-03-16T20:50:56.704Z,20.87
2018-03-16T20:53:25.924Z,17.67
2018-03-16T20:55:55.154Z,20.43
2018-03-16T20:58:25.157Z,21.97
2018-03-16T21:00:55.157Z,21.00
2018-03-16T21:03:24.429Z,21.90
2018-03-16T21:05:53.712Z,21.40
2018-03-16T21:08:22.958Z,20.93
2018-03-16T21:10:52.183Z,20.60
2018-03-16T21:13:22.150Z,19.73
2018-03-16T21:15:51.379Z,20.90
2018-03-16T21:18:21.380Z,20.57
2018-03-16T21:20:51.444Z,18.80
2018-03-16T21:23:20.634Z,17.73
2018-03-16T21:25:49.952Z,19.70
2018-03-16T21:28:19.508Z,19.20
2018-03-16T21:30:49.697Z,16.37
2018-03-16T21:33:19.987Z,17.00
2018-03-16T21:35:49.209Z,18.03
2018-03-16T21:38:18.431Z,16.60
2018-03-16T21:40:49.190Z,18.53
2018-03-16T21:43:18.391Z,19.20
2018-03-16T21:45:47.881Z,19.30
2018-03-16T21:48:18.699Z,17.77
2018-03-16T21:50:47.935Z,20.00
2018-03-16T21:53:18.670Z,19.00
2018-03-16T21:55:48.675Z,16.33
2018-03-16T21:58:18.668Z,16.77
2018-03-16T22:00:47.947Z,15.93
2018-03-16T22:03:17.237Z,17.23
2018-03-16T22:05:46.491Z,18.60
2018-03-16T22:08:16.475Z,16.53
2018-03-16T22:10:45.848Z,17.97
2018-03-16T22:13:15.074Z,16.73
2018-03-16T22:15:44.289Z,18.13
2018-03-16T22:18:13.603Z,16.53
2018-03-16T22:20:43.747Z,16.90
2018-03-16T22:23:12.992Z,17.03
2018-03-16T22:25:42.171Z,16.50
2018-03-16T22:28:11.411Z,16.67
2018-03-16T22:30:41.402Z,18.10
2018-03-16T22:33:10.618Z,15.53
2018-03-16T22:35:40.631Z,17.97
2018-03-16T22:38:09.895Z,16.90
2018-03-16T22:40:39.108Z,15.10
2018-03-16T22:43:08.366Z,15.97
2018-03-16T22:45:37.616Z,17.03
2018-03-16T22:48:06.847Z,16.80
2018-03-16T22:50:36.813Z,16.37
2018-03-16T22:53:06.068Z,15.43
2018-03-16T22:55:35.321Z,18.17
2018-03-16T22:58:05.315Z,17.17
2018-03-16T23:00:34.545Z,16.33
2018-03-16T23:03:03.780Z,16.60
2018-03-16T23:05:32.979Z,18.07
2018-03-16T23:08:02.195Z,16.27
2018-03-16T23:10:31.446Z,19.03
2018-03-16T23:13:01.490Z,15.90
2018-03-16T23:15:30.814Z,14.87
2018-03-16T23:18:00.050Z,16.10
2018-03-16T23:20:29.564Z,15.13
2018-03-16T23:22:59.548Z,14.10
2018-03-16T23:25:28.786Z,18.57
2018-03-16T23:27:58.754Z,17.50
2018-03-16T23:30:28.027Z,16.10
2018-03-16T23:32:57.243Z,15.80
2018-03-16T23:35:26.488Z,14.17
2018-03-16T23:37:56.468Z,14.80
2018-03-16T23:40:25.699Z,15.00
2018-03-16T23:42:55.834Z,14.40
2018-03-16T23:45:25.106Z,13.70
2018-03-16T23:47:54.312Z,12.67
2018-03-16T23:50:24.386Z,15.17
2018-03-16T23:52:53.642Z,12.50
2018-03-16T23:55:23.640Z,14.10
2018-03-16T23:57:52.884Z,13.77
